Time;durP1;ratioP1;P1;durP2;ratioP2;P2;SDS_P1;SDS_P2;PMS_P1;PMS_P2;Temp;Humidity;BMP_temperature;BMP_pressure;BME280_temperature;BME280_humidity;BME280_pressure;Samples;Min_cycle;Max_cycle;Signal;HPM_P1;HPM_P2
2024/03/10 00:02:04;;;;;;;112.88;43.33;;;5.80;99.90;;;;;;4994237;28;20514;-94
2024/03/10 00:04:30;;;;;;;110.50;43.30;;;5.80;99.90;;;;;;5003149;28;20027;-94
2024/03/10 00:06:55;;;;;;;112.00;43.30;;;5.80;99.90;;;;;;4995134;28;20035;-93
2024/03/10 00:09:21;;;;;;;96.63;40.58;;;5.80;99.90;;;;;;4994776;28;20042;-92
2024/03/10 00:11:47;;;;;;;100.18;39.83;;;5.80;99.90;;;;;;4992584;28;20030;-96
2024/03/10 00:14:13;;;;;;;112.32;38.47;;;5.80;99.90;;;;;;4991972;28;20105;-94
2024/03/10 00:16:39;;;;;;;101.53;37.60;;;5.90;99.90;;;;;;4991977;28;20177;-92
2024/03/10 00:19:05;;;;;;;90.35;37.63;;;5.90;99.90;;;;;;4991806;28;20105;-91
2024/03/10 00:21:33;;;;;;;94.82;37.75;;;5.90;99.90;;;;;;4993009;28;20031;-92
2024/03/10 00:24:00;;;;;;;101.53;40.88;;;5.90;99.90;;;;;;5001641;28;20038;-94
2024/03/10 00:26:27;;;;;;;83.80;34.80;;;5.90;99.90;;;;;;4994059;28;20038;-95
2024/03/10 00:28:52;;;;;;;85.47;34.53;;;5.90;99.90;;;;;;4996307;28;20496;-93
2024/03/10 00:31:19;;;;;;;93.22;34.78;;;5.90;99.90;;;;;;4995224;28;20080;-91
2024/03/10 00:33:44;;;;;;;91.80;37.45;;;5.90;99.90;;;;;;4993355;28;20073;-91
2024/03/10 00:36:10;;;;;;;88.00;34.40;;;5.90;99.90;;;;;;4994202;28;20018;-93
2024/03/10 00:38:37;;;;;;;89.53;35.45;;;5.90;99.90;;;;;;5002595;28;20685;-93
2024/03/10 00:41:04;;;;;;;99.97;40.45;;;5.90;99.90;;;;;;4994908;28;20030;-92
2024/03/10 00:43:30;;;;;;;88.43;37.20;;;5.90;99.90;;;;;;4994324;28;20026;-93
2024/03/10 00:45:56;;;;;;;88.38;35.97;;;5.90;99.90;;;;;;4993558;28;20027;-92
2024/03/10 00:48:21;;;;;;;96.10;37.33;;;5.90;99.90;;;;;;4993092;28;20080;-92
2024/03/10 00:50:47;;;;;;;83.90;33.58;;;5.90;99.90;;;;;;4994032;28;20015;-92
2024/03/10 00:53:15;;;;;;;82.60;34.83;;;5.90;99.90;;;;;;4994429;28;20035;-92
2024/03/10 00:55:42;;;;;;;83.38;34.65;;;5.90;99.90;;;;;;4994019;28;20170;-93
2024/03/10 00:58:08;;;;;;;77.40;31.77;;;5.90;99.90;;;;;;4994000;28;20602;-92
2024/03/10 01:00:34;;;;;;;82.65;32.95;;;5.90;99.90;;;;;;4993665;28;20060;-93
2024/03/10 01:03:01;;;;;;;88.78;34.10;;;5.90;99.90;;;;;;4993148;28;20066;-91
2024/03/10 01:05:27;;;;;;;74.05;31.48;;;5.90;99.90;;;;;;4992583;28;20030;-91
2024/03/10 01:07:52;;;;;;;73.93;31.65;;;5.90;99.90;;;;;;4994200;28;20022;-90
2024/03/10 01:10:18;;;;;;;76.53;33.42;;;6.00;99.90;;;;;;4993199;28;20046;-91
2024/03/10 01:12:44;;;;;;;76.43;32.92;;;6.00;99.90;;;;;;4993504;28;20035;-91
2024/03/10 01:15:10;;;;;;;73.57;31.20;;;6.00;99.90;;;;;;4994180;28;20019;-92
2024/03/10 01:17:36;;;;;;;80.70;33.42;;;6.00;99.90;;;;;;4993085;28;20497;-92
2024/03/10 01:20:03;;;;;;;79.18;32.58;;;6.00;99.90;;;;;;4992364;28;20057;-94
2024/03/10 01:22:31;;;;;;;87.53;35.63;;;6.00;99.90;;;;;;4993334;28;20181;-93
2024/03/10 01:24:57;;;;;;;96.13;37.88;;;6.00;99.90;;;;;;4993023;28;20022;-92
2024/03/10 01:27:22;;;;;;;96.30;37.78;;;6.00;99.90;;;;;;4992739;28;20174;-92
2024/03/10 01:29:48;;;;;;;85.05;36.33;;;6.00;99.90;;;;;;4994780;28;20033;-93
2024/03/10 01:32:14;;;;;;;87.93;38.13;;;6.10;99.90;;;;;;4998088;28;20042;-93
2024/03/10 01:34:39;;;;;;;94.07;37.50;;;6.10;99.90;;;;;;5004398;28;20118;-93
2024/03/10 01:37:06;;;;;;;86.85;35.95;;;6.10;99.90;;;;;;5002303;28;20026;-92
2024/03/10 01:39:32;;;;;;;83.30;36.88;;;6.10;99.90;;;;;;5002447;28;20034;-93
2024/03/10 01:41:57;;;;;;;83.57;33.25;;;6.10;99.90;;;;;;4996963;28;20018;-94
2024/03/10 01:44:26;;;;;;;110.88;38.67;;;6.10;99.90;;;;;;4995960;28;20030;-95
2024/03/10 01:46:52;;;;;;;94.13;39.53;;;6.10;99.90;;;;;;4993837;28;20188;-92
2024/03/10 01:49:19;;;;;;;104.93;39.08;;;6.10;99.90;;;;;;4993840;28;20058;-94
2024/03/10 01:51:46;;;;;;;92.65;37.42;;;6.10;99.90;;;;;;4992697;28;20050;-94
2024/03/10 01:54:13;;;;;;;95.93;37.95;;;6.10;99.90;;;;;;4995135;28;20034;-94
2024/03/10 01:56:39;;;;;;;93.50;36.40;;;6.20;99.90;;;;;;4993588;28;20026;-90
2024/03/10 01:59:10;;;;;;;101.57;37.58;;;6.20;99.90;;;;;;4997361;28;20015;-91
2024/03/10 02:01:36;;;;;;;94.90;35.35;;;6.20;99.90;;;;;;4997338;28;20037;-92
2024/03/10 02:04:02;;;;;;;90.47;36.88;;;6.20;99.90;;;;;;4993135;28;20026;-93
2024/03/10 02:06:28;;;;;;;84.53;34.95;;;6.20;99.90;;;;;;4992869;28;20030;-93
2024/03/10 02:08:54;;;;;;;97.47;36.55;;;6.20;99.90;;;;;;4994919;28;20160;-93
2024/03/10 02:11:20;;;;;;;83.32;35.20;;;6.20;99.90;;;;;;4997058;28;20476;-90
2024/03/10 02:13:47;;;;;;;87.75;34.80;;;6.20;99.90;;;;;;4998216;28;20479;-91
2024/03/10 02:16:13;;;;;;;75.60;33.33;;;6.20;99.90;;;;;;4996049;28;20033;-93
2024/03/10 02:18:39;;;;;;;78.40;32.55;;;6.20;99.90;;;;;;4994790;28;20534;-93
2024/03/10 02:21:08;;;;;;;79.65;33.53;;;6.20;99.90;;;;;;4993617;28;20042;-94
2024/03/10 02:23:45;;;;;;;84.55;34.13;;;6.20;99.90;;;;;;4992955;28;20289;-95
2024/03/10 02:26:15;;;;;;;99.47;37.47;;;6.20;99.90;;;;;;4992153;28;20038;-92
2024/03/10 02:28:57;;;;;;;89.30;35.22;;;6.20;99.90;;;;;;4992404;28;20018;-92
2024/03/10 02:47:51;;;;;;;84.97;35.28;;;6.30;99.90;;;;;;4994148;28;20093;-93
2024/03/10 02:50:17;;;;;;;83.00;33.15;;;6.30;99.90;;;;;;4996579;28;20019;-93
2024/03/10 02:52:43;;;;;;;75.00;30.80;;;6.30;99.90;;;;;;5009514;28;20088;-93
2024/03/10 02:55:08;;;;;;;60.30;26.67;;;6.30;99.90;;;;;;5000776;28;20026;-90
2024/03/10 02:57:34;;;;;;;66.55;29.05;;;6.30;99.90;;;;;;4996113;28;20025;-93
2024/03/10 03:00:00;;;;;;;74.28;30.13;;;6.30;99.90;;;;;;4991841;28;20707;-92
2024/03/10 03:02:26;;;;;;;82.30;34.15;;;6.30;99.90;;;;;;4991705;28;20052;-95
2024/03/10 03:04:52;;;;;;;80.45;35.55;;;6.30;99.90;;;;;;4991515;28;20052;-93
2024/03/10 03:07:18;;;;;;;89.35;35.15;;;6.30;99.90;;;;;;4992261;28;20537;-91
2024/03/10 03:09:47;;;;;;;89.35;36.58;;;6.30;99.90;;;;;;4991160;28;20045;-92
2024/03/10 03:12:13;;;;;;;78.38;33.75;;;6.30;99.90;;;;;;4990208;28;20026;-93
2024/03/10 03:14:41;;;;;;;92.93;39.22;;;6.30;99.90;;;;;;4991028;28;20022;-93
2024/03/10 03:17:06;;;;;;;78.28;32.47;;;6.30;99.90;;;;;;4992692;28;20542;-92
2024/03/10 03:19:32;;;;;;;98.13;37.60;;;6.30;99.90;;;;;;4995098;28;20019;-91
2024/03/10 03:22:02;;;;;;;84.15;35.95;;;6.30;99.90;;;;;;4995649;28;20121;-90
2024/03/10 03:24:28;;;;;;;96.20;36.50;;;6.30;99.90;;;;;;5004969;28;20054;-91
2024/03/10 03:26:54;;;;;;;97.63;39.15;;;6.30;99.90;;;;;;5006158;28;20042;-90
2024/03/10 03:29:20;;;;;;;108.10;39.95;;;6.30;99.90;;;;;;5013483;28;20034;-90
2024/03/10 03:31:46;;;;;;;86.82;33.55;;;6.30;99.90;;;;;;5007091;28;20046;-91
2024/03/10 03:34:11;;;;;;;112.68;40.25;;;6.30;99.90;;;;;;4998041;28;20020;-93
2024/03/10 03:36:37;;;;;;;99.53;35.60;;;6.30;99.90;;;;;;4996895;28;20476;-92
2024/03/10 03:39:05;;;;;;;100.40;39.33;;;6.30;99.90;;;;;;4996557;28;20027;-91
2024/03/10 03:41:31;;;;;;;91.88;37.10;;;6.30;99.90;;;;;;5004852;28;20030;-92
2024/03/10 03:43:59;;;;;;;93.25;36.25;;;6.30;99.90;;;;;;4998634;28;20041;-92
2024/03/10 03:46:25;;;;;;;95.68;40.55;;;6.30;99.90;;;;;;4996495;28;20031;-92
2024/03/10 03:48:50;;;;;;;105.32;42.20;;;6.30;99.90;;;;;;4996255;28;20515;-90
2024/03/10 03:51:16;;;;;;;106.75;40.30;;;6.30;99.90;;;;;;4996833;28;20615;-91
2024/03/10 03:53:44;;;;;;;89.55;36.28;;;6.30;99.90;;;;;;4996828;28;20018;-92
2024/03/10 03:56:11;;;;;;;96.15;38.50;;;6.30;99.90;;;;;;4996429;28;20114;-92
2024/03/10 03:58:36;;;;;;;96.93;38.80;;;6.30;99.90;;;;;;4997056;28;20027;-92
2024/03/10 04:01:04;;;;;;;91.10;35.85;;;6.30;99.90;;;;;;4998698;28;20022;-93
2024/03/10 04:03:30;;;;;;;91.20;37.00;;;6.30;99.90;;;;;;4999262;28;20038;-93
2024/03/10 04:05:56;;;;;;;103.07;39.30;;;6.30;99.90;;;;;;5002784;28;20018;-92
2024/03/10 04:08:21;;;;;;;92.15;38.72;;;6.30;99.90;;;;;;4993994;28;20049;-92
2024/03/10 04:10:47;;;;;;;85.78;36.10;;;6.30;99.90;;;;;;4994147;28;20104;-92
2024/03/10 04:13:13;;;;;;;95.85;38.08;;;6.30;99.90;;;;;;4994078;28;20108;-92
2024/03/10 04:15:39;;;;;;;93.43;35.42;;;6.30;99.90;;;;;;4993945;28;20481;-93
2024/03/10 04:18:06;;;;;;;92.38;36.60;;;6.30;99.90;;;;;;4994046;28;20049;-91
2024/03/10 04:20:35;;;;;;;87.25;35.03;;;6.30;99.90;;;;;;4993985;28;20030;-92
2024/03/10 04:23:05;;;;;;;79.88;32.78;;;6.30;99.90;;;;;;4994766;28;20022;-92
2024/03/10 04:25:31;;;;;;;79.10;33.15;;;6.30;99.90;;;;;;4993769;28;20069;-93
2024/03/10 04:27:57;;;;;;;73.82;31.33;;;6.20;99.90;;;;;;4993026;28;20647;-93
2024/03/10 04:30:22;;;;;;;66.50;29.30;;;6.20;99.90;;;;;;4993890;28;20042;-92
2024/03/10 04:32:51;;;;;;;65.65;27.45;;;6.30;99.90;;;;;;4994304;28;20026;-92
2024/03/10 04:35:19;;;;;;;59.63;25.77;;;6.20;99.90;;;;;;4994154;28;20468;-94
2024/03/10 04:37:48;;;;;;;59.85;25.63;;;6.20;99.90;;;;;;4998060;28;20026;-91
2024/03/10 04:40:16;;;;;;;56.50;25.80;;;6.20;99.90;;;;;;4999070;28;20050;-94
2024/03/10 04:42:42;;;;;;;54.22;24.15;;;6.20;99.90;;;;;;4996455;28;20080;-90
2024/03/10 04:45:11;;;;;;;45.70;21.67;;;6.20;99.90;;;;;;4996712;28;20098;-94
2024/03/10 04:47:37;;;;;;;52.58;23.15;;;6.20;99.90;;;;;;4997114;28;20077;-91
2024/03/10 04:50:03;;;;;;;51.10;22.42;;;6.20;99.90;;;;;;4996067;28;20019;-92
2024/03/10 04:52:28;;;;;;;44.90;20.50;;;6.20;99.90;;;;;;4995788;28;20026;-92
2024/03/10 04:54:54;;;;;;;50.70;20.45;;;6.20;99.90;;;;;;4994066;28;20487;-93
2024/03/10 04:57:20;;;;;;;45.72;20.65;;;6.20;99.90;;;;;;4993916;28;20035;-93
2024/03/10 04:59:45;;;;;;;43.67;20.50;;;6.20;99.90;;;;;;4994512;28;20014;-92
2024/03/10 05:02:11;;;;;;;43.50;18.73;;;6.20;99.90;;;;;;4993083;28;21267;-93
2024/03/10 05:04:37;;;;;;;46.28;20.02;;;6.20;99.90;;;;;;4994094;28;20026;-94
2024/03/10 05:07:04;;;;;;;42.13;19.42;;;6.20;99.90;;;;;;4993676;28;20476;-94
2024/03/10 05:09:30;;;;;;;42.83;19.58;;;6.20;99.90;;;;;;4993216;28;20046;-93
2024/03/10 05:11:56;;;;;;;43.58;20.77;;;6.20;99.90;;;;;;4992430;28;20042;-93
2024/03/10 05:14:22;;;;;;;41.85;20.48;;;6.20;99.90;;;;;;4993086;28;20022;-92
2024/03/10 05:16:48;;;;;;;45.25;19.38;;;6.20;99.90;;;;;;4992867;28;20145;-94
2024/03/10 05:19:14;;;;;;;46.40;20.95;;;6.20;99.90;;;;;;4991404;28;20165;-94
2024/03/10 05:21:47;;;;;;;40.05;19.15;;;6.20;99.90;;;;;;4994524;28;20057;-92
2024/03/10 05:24:13;;;;;;;43.38;21.00;;;6.20;99.90;;;;;;4993546;28;20507;-91
2024/03/10 05:26:39;;;;;;;43.60;20.60;;;6.20;99.90;;;;;;4993492;28;20042;-92
2024/03/10 05:29:04;;;;;;;39.63;18.83;;;6.20;99.90;;;;;;4993157;28;20034;-92
2024/03/10 05:31:32;;;;;;;40.05;19.30;;;6.20;99.90;;;;;;4993817;28;20084;-90
2024/03/10 05:33:59;;;;;;;41.50;21.27;;;6.20;99.90;;;;;;4993810;28;20548;-93
2024/03/10 05:36:28;;;;;;;41.88;19.92;;;6.20;99.90;;;;;;4993983;28;20121;-93
2024/03/10 05:38:54;;;;;;;36.55;16.85;;;6.20;99.90;;;;;;4997060;28;20026;-93
2024/03/10 05:41:20;;;;;;;48.70;23.05;;;6.20;99.90;;;;;;4999401;28;20030;-91
2024/03/10 05:43:47;;;;;;;54.42;23.67;;;6.20;99.90;;;;;;4999692;28;20030;-92
2024/03/10 05:46:12;;;;;;;48.00;23.48;;;6.30;99.90;;;;;;4993788;28;20022;-93
2024/03/10 05:48:40;;;;;;;53.67;22.60;;;6.30;99.90;;;;;;4994254;28;20112;-91
2024/03/10 05:51:06;;;;;;;49.88;20.52;;;6.30;99.90;;;;;;4993765;28;20045;-92
2024/03/10 05:53:32;;;;;;;52.63;23.60;;;6.30;99.90;;;;;;4994203;28;20113;-92
2024/03/10 05:55:58;;;;;;;53.17;25.73;;;6.30;99.90;;;;;;4993444;28;20068;-93
2024/03/10 05:58:24;;;;;;;51.70;23.63;;;6.30;99.90;;;;;;4993759;28;20049;-91
2024/03/10 06:00:50;;;;;;;52.38;22.25;;;6.40;99.90;;;;;;4995832;28;20277;-93
2024/03/10 06:03:16;;;;;;;47.85;21.15;;;6.40;99.90;;;;;;4993545;28;20036;-93
2024/03/10 06:05:42;;;;;;;48.60;20.30;;;6.40;99.90;;;;;;4992388;28;20113;-93
2024/03/10 06:08:10;;;;;;;42.08;17.20;;;6.40;99.90;;;;;;4990918;28;20030;-91
2024/03/10 06:10:38;;;;;;;38.78;16.33;;;6.40;99.90;;;;;;4992278;28;20068;-91
2024/03/10 06:13:04;;;;;;;38.10;16.92;;;6.40;99.90;;;;;;4993065;28;20022;-94
2024/03/10 06:15:29;;;;;;;35.65;17.33;;;6.40;99.90;;;;;;4992699;28;20488;-93
2024/03/10 06:18:15;;;;;;;32.67;16.80;;;6.50;99.90;;;;;;5000352;28;20042;-94
2024/03/10 06:26:15;;;;;;;31.92;14.02;;;6.50;99.90;;;;;;4992426;28;20093;-91
2024/03/10 06:28:42;;;;;;;32.78;13.48;;;6.50;99.90;;;;;;4993003;28;20081;-93
2024/03/10 06:31:07;;;;;;;27.45;13.93;;;6.50;99.90;;;;;;4999764;28;20415;-93
2024/03/10 06:33:35;;;;;;;30.25;13.60;;;6.50;99.90;;;;;;4991146;28;20030;-93
2024/03/10 06:36:08;;;;;;;26.80;11.85;;;6.50;99.90;;;;;;4991113;28;20423;-92
2024/03/10 06:38:40;;;;;;;26.73;12.00;;;6.50;99.90;;;;;;4992282;28;20110;-93
2024/03/10 06:41:09;;;;;;;31.67;14.45;;;6.60;99.90;;;;;;4992736;28;20019;-92
2024/03/10 06:43:39;;;;;;;29.67;14.70;;;6.60;99.90;;;;;;4990044;28;20022;-92
2024/03/10 06:46:07;;;;;;;29.23;13.57;;;6.60;99.90;;;;;;4990911;28;20049;-91
2024/03/10 06:48:34;;;;;;;31.80;16.05;;;6.60;99.90;;;;;;4991051;28;20109;-91
2024/03/10 06:51:01;;;;;;;40.45;17.02;;;6.60;99.90;;;;;;4991595;28;20101;-94
2024/03/10 06:53:27;;;;;;;38.42;16.50;;;6.70;99.90;;;;;;4991548;28;20026;-93
2024/03/10 06:55:55;;;;;;;30.25;13.73;;;6.70;99.90;;;;;;4991561;28;20023;-92
2024/03/10 06:58:21;;;;;;;35.40;15.05;;;6.70;99.90;;;;;;4990949;28;20151;-92
2024/03/10 07:00:47;;;;;;;30.10;13.95;;;6.70;99.90;;;;;;4990456;28;20491;-92
2024/03/10 07:03:13;;;;;;;32.97;14.90;;;6.70;99.90;;;;;;4990531;28;20054;-91
2024/03/10 07:05:41;;;;;;;30.42;15.82;;;6.80;99.90;;;;;;4991001;28;20673;-90
2024/03/10 07:08:07;;;;;;;36.85;15.90;;;6.80;99.90;;;;;;4990389;28;20031;-91
2024/03/10 07:10:37;;;;;;;34.45;14.80;;;6.80;99.90;;;;;;4991812;28;20507;-91
2024/03/10 07:13:08;;;;;;;34.05;15.38;;;6.80;99.90;;;;;;4995281;28;20102;-93
2024/03/10 07:15:34;;;;;;;39.53;17.00;;;6.80;99.90;;;;;;5003308;28;20023;-92
2024/03/10 07:17:59;;;;;;;36.80;14.93;;;6.80;99.90;;;;;;4991628;28;20117;-91
2024/03/10 07:20:25;;;;;;;35.17;15.68;;;6.80;99.90;;;;;;4990975;28;20034;-93
2024/03/10 07:22:51;;;;;;;29.65;14.15;;;6.80;99.90;;;;;;4990878;28;20050;-93
2024/03/10 07:25:17;;;;;;;32.40;15.35;;;6.90;99.90;;;;;;4990834;28;20030;-93
2024/03/10 07:27:43;;;;;;;29.05;14.15;;;6.90;99.90;;;;;;4991947;28;20484;-91
2024/03/10 07:30:09;;;;;;;31.60;15.60;;;6.90;99.90;;;;;;4991010;28;20022;-91
2024/03/10 07:32:35;;;;;;;29.85;13.63;;;6.90;99.90;;;;;;4990487;28;20053;-91
2024/03/10 07:35:03;;;;;;;32.72;13.85;;;6.90;99.90;;;;;;4991135;28;20050;-92
2024/03/10 07:37:29;;;;;;;34.63;14.75;;;6.90;99.90;;;;;;4991261;28;20093;-92
2024/03/10 07:39:55;;;;;;;33.63;13.93;;;6.90;99.90;;;;;;4991975;28;20041;-91
2024/03/10 07:42:21;;;;;;;34.60;15.20;;;6.90;99.90;;;;;;4991977;28;20419;-92
2024/03/10 07:44:46;;;;;;;36.38;17.00;;;6.90;99.90;;;;;;4993945;28;20022;-92
2024/03/10 07:47:12;;;;;;;35.90;15.00;;;6.90;99.90;;;;;;5009147;28;20030;-91
2024/03/10 07:49:38;;;;;;;34.35;14.85;;;6.90;99.90;;;;;;4995417;28;20112;-92
2024/03/10 07:52:05;;;;;;;34.03;16.63;;;6.90;99.90;;;;;;4997875;28;20033;-95
2024/03/10 07:54:31;;;;;;;35.95;14.40;;;6.90;99.90;;;;;;4994935;28;20053;-92
2024/03/10 07:56:57;;;;;;;31.45;15.68;;;6.90;99.90;;;;;;4994086;28;20564;-92
2024/03/10 07:59:23;;;;;;;36.65;15.48;;;6.90;99.90;;;;;;4992870;28;20086;-92
2024/03/10 08:01:49;;;;;;;36.85;15.70;;;6.90;99.90;;;;;;4991008;28;20101;-90
2024/03/10 08:04:19;;;;;;;41.80;19.27;;;6.90;99.90;;;;;;4994537;28;20050;-92
2024/03/10 08:06:45;;;;;;;42.90;19.50;;;6.90;99.90;;;;;;5002210;28;20038;-90
2024/03/10 08:09:15;;;;;;;42.25;20.80;;;6.80;99.90;;;;;;4994726;28;20039;-92
2024/03/10 08:11:44;;;;;;;51.83;21.90;;;6.80;99.90;;;;;;4994569;28;20538;-90
2024/03/10 08:14:10;;;;;;;48.67;23.92;;;6.80;99.90;;;;;;4994819;28;20023;-92
2024/03/10 08:16:36;;;;;;;61.17;26.38;;;6.80;99.90;;;;;;4995389;28;20042;-94
2024/03/10 08:19:03;;;;;;;61.40;26.35;;;6.80;99.90;;;;;;4997762;28;20379;-93
2024/03/10 08:21:29;;;;;;;62.05;27.13;;;6.80;99.90;;;;;;4995598;28;20121;-92
2024/03/10 08:23:55;;;;;;;68.78;28.48;;;6.80;99.90;;;;;;5003094;28;20022;-90
2024/03/10 08:26:20;;;;;;;71.60;28.13;;;6.80;99.90;;;;;;4997246;28;20041;-91
2024/03/10 08:28:47;;;;;;;70.55;29.38;;;6.80;99.90;;;;;;4995153;28;20041;-92
2024/03/10 08:31:13;;;;;;;73.35;27.13;;;6.80;99.90;;;;;;4994474;28;20109;-91
2024/03/10 08:33:39;;;;;;;70.43;29.40;;;6.70;99.90;;;;;;4994765;28;20609;-91
2024/03/10 08:36:05;;;;;;;69.18;28.75;;;6.70;99.90;;;;;;4995045;28;20026;-92
2024/03/10 08:38:30;;;;;;;67.68;27.65;;;6.70;99.90;;;;;;4994901;28;20052;-92
2024/03/10 08:40:57;;;;;;;77.05;32.40;;;6.70;99.90;;;;;;4997754;28;20048;-92
2024/03/10 08:43:23;;;;;;;82.53;31.27;;;6.70;99.90;;;;;;5002643;28;20083;-90
2024/03/10 08:45:49;;;;;;;69.82;27.63;;;6.70;99.90;;;;;;5004573;28;20292;-91
2024/03/10 08:48:15;;;;;;;69.13;27.92;;;6.70;99.90;;;;;;4995803;28;20034;-89
2024/03/10 08:50:42;;;;;;;62.45;24.88;;;6.70;99.90;;;;;;4994738;28;20101;-91
2024/03/10 08:53:08;;;;;;;61.80;25.23;;;6.70;99.90;;;;;;4994688;28;20045;-91
2024/03/10 08:55:35;;;;;;;56.33;23.67;;;6.70;99.90;;;;;;4994527;28;20030;-91
2024/03/10 08:58:03;;;;;;;58.40;24.25;;;6.70;99.90;;;;;;4996537;28;20054;-91
2024/03/10 09:00:30;;;;;;;56.15;21.45;;;6.70;99.90;;;;;;4994376;28;20338;-91
2024/03/10 09:02:56;;;;;;;56.70;24.30;;;6.70;99.90;;;;;;4995800;28;20026;-91
2024/03/10 09:05:23;;;;;;;56.15;24.85;;;6.70;99.90;;;;;;4997019;28;20027;-92
2024/03/10 09:07:50;;;;;;;55.75;23.20;;;6.70;99.90;;;;;;4998504;28;20101;-90
2024/03/10 09:10:15;;;;;;;52.80;22.10;;;6.70;99.90;;;;;;4994833;28;20030;-93
2024/03/10 09:12:42;;;;;;;56.20;23.58;;;6.70;99.90;;;;;;4994655;28;20046;-93
2024/03/10 09:15:09;;;;;;;53.35;23.00;;;6.60;99.90;;;;;;4992466;28;20464;-92
2024/03/10 09:17:37;;;;;;;41.45;19.83;;;6.60;99.90;;;;;;4994804;28;20030;-92
2024/03/10 09:20:03;;;;;;;43.17;19.80;;;6.60;99.90;;;;;;4993153;28;20100;-92
2024/03/10 09:22:29;;;;;;;46.85;20.88;;;6.70;99.90;;;;;;5001827;28;20102;-92
2024/03/10 09:24:55;;;;;;;55.50;22.42;;;6.60;99.90;;;;;;5005770;28;20035;-91
2024/03/10 09:27:21;;;;;;;52.33;22.70;;;6.60;99.90;;;;;;5000727;28;20042;-92
2024/03/10 09:29:47;;;;;;;55.00;22.90;;;6.60;99.90;;;;;;5003878;28;20113;-90
2024/03/10 09:32:19;;;;;;;49.63;23.40;;;6.60;99.90;;;;;;4993429;28;20499;-91
2024/03/10 09:34:46;;;;;;;53.53;23.23;;;6.70;99.90;;;;;;5003160;28;20157;-91
2024/03/10 09:37:11;;;;;;;55.58;23.67;;;6.70;99.90;;;;;;4993041;28;20022;-91
2024/03/10 09:39:37;;;;;;;49.10;22.00;;;6.70;99.90;;;;;;4995823;28;20031;-92
2024/03/10 09:42:03;;;;;;;52.78;22.83;;;6.70;99.90;;;;;;4992212;28;20045;-90
2024/03/10 09:44:30;;;;;;;50.83;22.67;;;6.70;99.90;;;;;;4996382;28;20049;-91
2024/03/10 09:46:57;;;;;;;51.28;22.00;;;6.70;99.90;;;;;;4996525;28;20034;-90
2024/03/10 09:49:23;;;;;;;51.10;22.80;;;6.70;99.90;;;;;;4994128;28;20058;-92
2024/03/10 09:51:49;;;;;;;61.35;25.10;;;6.80;99.90;;;;;;4990482;28;20026;-93
2024/03/10 09:54:17;;;;;;;61.92;25.60;;;6.80;99.90;;;;;;4993901;28;20105;-91
2024/03/10 09:56:46;;;;;;;56.15;24.85;;;6.80;99.90;;;;;;4994594;28;20036;-92
2024/03/10 09:59:23;;;;;;;59.22;26.98;;;6.80;99.90;;;;;;4996150;28;20109;-92
2024/03/10 10:01:50;;;;;;;64.40;26.73;;;6.90;99.90;;;;;;4995156;28;20038;-93
2024/03/10 10:04:19;;;;;;;62.03;28.95;;;6.90;99.90;;;;;;4993716;28;20033;-92
2024/03/10 10:06:46;;;;;;;65.25;28.13;;;7.00;99.90;;;;;;4994793;28;20033;-93
2024/03/10 10:09:11;;;;;;;72.60;29.60;;;7.00;99.90;;;;;;4993494;28;20820;-92
2024/03/10 10:11:38;;;;;;;61.55;26.52;;;7.00;99.90;;;;;;4992002;28;20026;-90
2024/03/10 10:14:15;;;;;;;65.03;27.48;;;7.10;99.90;;;;;;5000986;28;20037;-93
2024/03/10 10:16:57;;;;;;;64.78;27.40;;;7.10;99.90;;;;;;4990327;28;20018;-91
2024/03/10 10:19:26;;;;;;;66.65;30.00;;;7.10;99.90;;;;;;4997166;28;20140;-91
2024/03/10 10:21:53;;;;;;;57.80;26.30;;;7.10;99.90;;;;;;4998657;28;20033;-91
2024/03/10 10:24:19;;;;;;;65.10;28.83;;;7.10;99.90;;;;;;4993729;28;20027;-92
2024/03/10 10:26:59;;;;;;;68.25;28.05;;;7.10;99.90;;;;;;4991555;28;20472;-91
2024/03/10 10:29:25;;;;;;;65.75;27.67;;;7.10;99.90;;;;;;4992813;28;20030;-90
2024/03/10 10:31:59;;;;;;;66.95;29.05;;;7.00;99.90;;;;;;4991638;28;20109;-91
2024/03/10 10:34:25;;;;;;;55.97;25.08;;;7.00;99.90;;;;;;4990613;28;20018;-90
2024/03/10 10:36:55;;;;;;;65.75;27.00;;;7.00;99.90;;;;;;4992155;28;20019;-92
2024/03/10 10:39:29;;;;;;;65.25;26.52;;;7.00;99.90;;;;;;4990642;28;20030;-93
2024/03/10 10:41:57;;;;;;;77.00;29.48;;;6.90;99.90;;;;;;4991361;28;20035;-91
2024/03/10 10:44:24;;;;;;;68.35;29.38;;;6.90;99.90;;;;;;4993581;28;20026;-90
2024/03/10 10:46:51;;;;;;;72.50;29.48;;;6.90;99.90;;;;;;5002846;28;20415;-93
2024/03/10 10:49:21;;;;;;;76.32;31.52;;;6.90;99.90;;;;;;5000487;28;20042;-91
2024/03/10 10:51:50;;;;;;;72.13;28.20;;;6.90;99.90;;;;;;5003312;28;20119;-90
2024/03/10 10:54:19;;;;;;;81.85;32.90;;;6.80;99.90;;;;;;5002085;28;20011;-92
2024/03/10 10:56:54;;;;;;;82.30;33.78;;;6.80;99.90;;;;;;4999677;28;20057;-90
2024/03/10 10:59:24;;;;;;;79.43;32.25;;;6.70;99.90;;;;;;5004259;28;20407;-89
2024/03/10 11:01:56;;;;;;;75.47;32.67;;;6.70;99.90;;;;;;5012839;28;20030;-92
2024/03/10 11:04:26;;;;;;;85.97;34.10;;;6.70;99.90;;;;;;4994372;28;20041;-93
2024/03/10 11:06:55;;;;;;;87.30;33.20;;;6.70;99.90;;;;;;4993395;28;20088;-89
2024/03/10 11:09:28;;;;;;;94.13;35.38;;;6.60;99.90;;;;;;4996087;28;20061;-93
2024/03/10 11:11:54;;;;;;;84.72;33.38;;;6.70;99.90;;;;;;5008734;28;20057;-93
2024/03/10 11:14:25;;;;;;;85.32;32.58;;;6.70;99.90;;;;;;4991791;28;20109;-93
2024/03/10 11:17:15;;;;;;;86.68;31.65;;;6.60;99.90;;;;;;4991568;28;20022;-93
2024/03/10 11:19:47;;;;;;;70.47;29.88;;;6.60;99.90;;;;;;4990484;28;20577;-91
2024/03/10 11:22:12;;;;;;;96.38;34.17;;;6.60;99.90;;;;;;4991448;28;20075;-94
2024/03/10 11:24:41;;;;;;;90.65;30.85;;;6.60;99.90;;;;;;4993272;28;20038;-92
2024/03/10 11:27:11;;;;;;;84.43;31.42;;;6.60;99.90;;;;;;4992831;28;20030;-93
2024/03/10 11:29:38;;;;;;;89.57;32.40;;;6.60;99.90;;;;;;4992503;28;20026;-94
2024/03/10 11:32:27;;;;;;;92.15;34.83;;;6.70;99.90;;;;;;4992618;28;20033;-94
2024/03/10 11:34:55;;;;;;;87.00;33.40;;;6.60;99.90;;;;;;4992982;28;20019;-94
2024/03/10 11:37:21;;;;;;;100.03;36.65;;;6.70;99.90;;;;;;4993414;28;20026;-95
2024/03/10 11:39:50;;;;;;;97.88;35.63;;;6.70;99.90;;;;;;4998197;28;20040;-93
2024/03/10 11:42:16;;;;;;;87.15;30.52;;;6.70;99.90;;;;;;4998492;28;20026;-93
2024/03/10 11:44:42;;;;;;;86.65;30.92;;;6.70;99.90;;;;;;5009040;28;20053;-93
2024/03/10 11:47:11;;;;;;;84.85;31.60;;;6.70;99.90;;;;;;4998897;28;20031;-95
2024/03/10 11:49:39;;;;;;;78.07;28.48;;;6.70;99.90;;;;;;4996398;28;20058;-93
2024/03/10 11:52:06;;;;;;;85.90;31.92;;;6.70;99.90;;;;;;4996391;28;20058;-94
2024/03/10 11:54:35;;;;;;;77.70;29.05;;;6.70;99.90;;;;;;4996208;28;20396;-93
2024/03/10 11:57:02;;;;;;;84.78;30.17;;;6.70;99.90;;;;;;4996322;28;20121;-94
2024/03/10 11:59:29;;;;;;;80.93;32.20;;;6.70;99.90;;;;;;4995567;28;20019;-93
2024/03/10 12:01:57;;;;;;;75.90;28.77;;;6.80;99.90;;;;;;4996679;28;20018;-94
2024/03/10 12:04:22;;;;;;;71.85;28.85;;;6.80;99.90;;;;;;4996310;28;20080;-94
2024/03/10 12:06:49;;;;;;;58.92;22.95;;;6.80;99.90;;;;;;4996338;28;20117;-95
2024/03/10 12:09:20;;;;;;;55.03;23.55;;;6.80;99.90;;;;;;4995546;28;20420;-94
2024/03/10 12:11:46;;;;;;;62.05;23.83;;;6.80;99.90;;;;;;4996487;28;20053;-92
2024/03/10 12:14:15;;;;;;;68.53;26.23;;;6.80;99.90;;;;;;5001838;28;20479;-92
2024/03/10 12:16:47;;;;;;;61.53;25.02;;;6.80;99.90;;;;;;5001456;28;20034;-93
2024/03/10 12:19:14;;;;;;;65.13;25.05;;;6.80;99.90;;;;;;4999120;28;20022;-94
2024/03/10 12:21:40;;;;;;;69.93;25.40;;;6.90;99.90;;;;;;5003501;28;20045;-95
2024/03/10 12:24:06;;;;;;;59.60;25.98;;;6.90;99.90;;;;;;5011339;28;20388;-96
2024/03/10 12:26:32;;;;;;;53.58;23.02;;;6.90;99.90;;;;;;4997530;28;20373;-94
2024/03/10 12:28:58;;;;;;;53.55;24.13;;;6.90;99.90;;;;;;4997207;28;20098;-93
2024/03/10 12:31:27;;;;;;;56.78;22.58;;;6.90;99.90;;;;;;4997747;28;20061;-94
2024/03/10 12:33:53;;;;;;;52.05;21.27;;;6.90;99.90;;;;;;5001550;28;20018;-92
2024/03/10 12:36:20;;;;;;;50.38;20.75;;;7.00;99.90;;;;;;4997551;28;20076;-94
2024/03/10 12:38:46;;;;;;;52.38;20.80;;;7.00;99.90;;;;;;5006430;28;20022;-95
2024/03/10 12:41:23;;;;;;;46.30;19.65;;;7.00;99.90;;;;;;4996485;28;20037;-94
2024/03/10 12:43:49;;;;;;;46.67;20.27;;;7.00;99.90;;;;;;4997162;28;20140;-95
2024/03/10 12:46:18;;;;;;;42.50;19.67;;;7.00;99.90;;;;;;4997289;28;20026;-94
2024/03/10 12:48:47;;;;;;;42.45;19.80;;;7.00;99.90;;;;;;4996861;28;20034;-94
2024/03/10 12:51:17;;;;;;;41.65;17.75;;;7.00;99.90;;;;;;4997496;28;20037;-95
2024/03/10 12:53:42;;;;;;;43.42;17.40;;;7.00;99.90;;;;;;5006223;28;20030;-95
2024/03/10 12:56:16;;;;;;;39.65;17.15;;;7.00;99.90;;;;;;4998720;28;20041;-94
2024/03/10 12:58:43;;;;;;;41.58;15.75;;;7.00;99.90;;;;;;5001901;28;20034;-96